createdAt,value
2023-01-19T00:01:32.940Z,19.60
2023-01-19T00:04:01.002Z,21.20
2023-01-19T00:06:28.916Z,26.90
2023-01-19T00:08:56.711Z,28.10
2023-01-19T00:11:24.698Z,26.40
2023-01-19T00:13:53.716Z,27.40
2023-01-19T00:16:23.305Z,27.40
2023-01-19T00:18:51.751Z,29.60
2023-01-19T00:21:19.679Z,31.10
2023-01-19T00:23:47.653Z,27.60
2023-01-19T00:26:16.386Z,34.80
2023-01-19T00:28:44.386Z,37.30
2023-01-19T00:31:12.474Z,41.00
2023-01-19T00:33:40.328Z,44.00
2023-01-19T00:36:08.181Z,44.30
2023-01-19T00:38:36.360Z,42.60
2023-01-19T00:41:04.280Z,44.70
2023-01-19T00:43:32.138Z,46.30
2023-01-19T00:45:59.899Z,47.00
2023-01-19T00:48:27.755Z,46.80
2023-01-19T00:50:55.629Z,51.60
2023-01-19T00:53:23.497Z,52.00
2023-01-19T00:55:51.445Z,48.80
2023-01-19T00:58:19.242Z,41.40
2023-01-19T01:00:47.024Z,42.30
2023-01-19T01:03:14.999Z,46.20
2023-01-19T01:05:42.964Z,48.40
2023-01-19T01:08:10.795Z,47.20
2023-01-19T01:10:38.709Z,50.00
2023-01-19T01:13:20.111Z,49.70
2023-01-19T01:15:48.933Z,50.60
2023-01-19T01:18:16.783Z,50.10
2023-01-19T01:20:44.767Z,51.50
2023-01-19T01:23:12.646Z,50.10
2023-01-19T01:25:40.402Z,51.50
2023-01-19T01:28:08.879Z,49.70
2023-01-19T01:30:40.308Z,45.30
2023-01-19T01:33:08.406Z,43.80
2023-01-19T01:35:36.256Z,41.10
2023-01-19T01:38:04.141Z,43.80
2023-01-19T01:40:32.077Z,44.50
2023-01-19T01:43:00.249Z,44.50
2023-01-19T01:45:28.632Z,40.20
2023-01-19T01:47:56.461Z,40.80
2023-01-19T01:50:24.337Z,40.20
2023-01-19T01:53:06.725Z,41.30
2023-01-19T01:55:35.565Z,39.80
2023-01-19T01:58:03.407Z,39.30
2023-01-19T02:00:54.289Z,34.10
2023-01-19T02:03:22.286Z,33.90
2023-01-19T02:05:50.137Z,27.40
2023-01-19T02:08:36.660Z,32.70
2023-01-19T02:11:23.212Z,27.10
2023-01-19T02:13:51.067Z,38.70
2023-01-19T02:16:18.884Z,41.40
2023-01-19T02:18:46.698Z,39.20
2023-01-19T02:21:14.605Z,32.10
2023-01-19T02:23:42.485Z,35.50
2023-01-19T02:26:10.290Z,39.60
2023-01-19T02:28:38.154Z,45.20
2023-01-19T02:31:06.393Z,45.10
2023-01-19T02:33:34.453Z,43.30
2023-01-19T02:36:02.471Z,42.80
2023-01-19T02:38:30.349Z,47.40
2023-01-19T02:40:58.115Z,52.50
2023-01-19T02:43:25.900Z,55.20
2023-01-19T02:45:54.578Z,55.40
2023-01-19T02:48:22.429Z,52.20
2023-01-19T02:50:50.733Z,48.90
2023-01-19T02:53:18.534Z,49.70
2023-01-19T02:55:46.339Z,53.10
2023-01-19T02:58:14.158Z,57.20
2023-01-19T03:00:41.897Z,58.00
2023-01-19T03:03:10.627Z,59.60
2023-01-19T03:05:38.414Z,59.60
2023-01-19T03:08:06.184Z,56.90
2023-01-19T03:10:33.975Z,54.50
2023-01-19T03:13:03.510Z,52.90
2023-01-19T03:15:31.664Z,54.20
2023-01-19T03:17:59.436Z,53.30
2023-01-19T03:20:29.050Z,52.00
2023-01-19T03:22:57.053Z,52.30
2023-01-19T03:25:24.836Z,48.50
2023-01-19T03:27:52.643Z,41.30
2023-01-19T03:30:20.358Z,41.80
2023-01-19T03:32:48.131Z,37.50
2023-01-19T03:35:15.966Z,41.90
2023-01-19T03:37:43.990Z,37.50
2023-01-19T03:40:11.773Z,39.50
2023-01-19T03:42:39.719Z,39.30
2023-01-19T03:45:07.543Z,37.60
2023-01-19T03:47:35.468Z,34.70
2023-01-19T03:50:03.363Z,35.00
2023-01-19T03:52:32.623Z,38.50
2023-01-19T03:55:00.400Z,36.40
2023-01-19T03:57:28.185Z,36.00
2023-01-19T03:59:56.943Z,32.60
2023-01-19T04:02:24.834Z,27.20
2023-01-19T04:04:52.616Z,37.50
2023-01-19T04:07:20.612Z,37.60
2023-01-19T04:09:48.342Z,39.80
2023-01-19T04:12:16.298Z,41.20
2023-01-19T04:14:44.056Z,37.90
2023-01-19T04:17:12.070Z,36.40
2023-01-19T04:19:39.918Z,33.30
2023-01-19T04:22:07.655Z,30.80
2023-01-19T04:24:35.412Z,32.60
2023-01-19T04:27:03.207Z,31.90
2023-01-19T04:29:30.990Z,29.20
2023-01-19T04:31:58.897Z,26.40
2023-01-19T04:34:26.928Z,28.80
2023-01-19T04:36:56.082Z,28.30
2023-01-19T04:39:24.244Z,24.40
2023-01-19T04:41:52.525Z,26.00
2023-01-19T04:44:20.297Z,25.60
2023-01-19T04:46:48.298Z,22.80
2023-01-19T04:49:16.378Z,23.70
2023-01-19T04:51:44.123Z,23.70
2023-01-19T04:54:11.890Z,21.20
2023-01-19T04:56:41.056Z,20.40
2023-01-19T04:59:08.886Z,20.90
2023-01-19T05:01:37.003Z,19.20
2023-01-19T05:04:07.165Z,16.00
2023-01-19T05:06:35.019Z,18.50
2023-01-19T05:09:02.948Z,19.00
2023-01-19T05:11:31.041Z,16.10
2023-01-19T05:13:58.911Z,17.40
2023-01-19T05:16:26.700Z,17.90
2023-01-19T05:18:54.815Z,17.20
2023-01-19T05:21:22.583Z,16.20
2023-01-19T05:23:50.365Z,17.20
2023-01-19T05:26:18.123Z,19.70
2023-01-19T05:28:45.875Z,15.50
2023-01-19T05:31:13.823Z,14.70
2023-01-19T05:33:42.403Z,16.80
2023-01-19T05:36:10.110Z,18.50
2023-01-19T05:38:38.138Z,17.00
2023-01-19T05:41:05.941Z,16.10
2023-01-19T05:43:33.737Z,19.80
2023-01-19T05:46:01.496Z,21.70
2023-01-19T05:48:29.347Z,20.70
2023-01-19T05:50:57.272Z,20.40
2023-01-19T05:53:25.014Z,22.80
2023-01-19T05:55:52.821Z,14.60
2023-01-19T05:58:20.594Z,15.70
2023-01-19T06:00:48.538Z,16.50
2023-01-19T06:03:16.360Z,15.00
2023-01-19T06:05:44.149Z,19.30
2023-01-19T06:08:11.951Z,15.40
2023-01-19T06:10:40.089Z,17.20
2023-01-19T06:13:09.818Z,14.30
2023-01-19T06:15:37.759Z,14.30
2023-01-19T06:18:05.695Z,13.80
2023-01-19T06:20:33.936Z,14.50
2023-01-19T06:23:02.378Z,14.60
2023-01-19T06:25:30.532Z,14.80
2023-01-19T06:27:58.371Z,13.70
2023-01-19T06:30:26.447Z,14.30
2023-01-19T06:32:54.310Z,14.80
2023-01-19T06:35:22.254Z,10.50
2023-01-19T06:37:50.234Z,13.80
2023-01-19T06:40:18.084Z,14.60
2023-01-19T06:42:45.878Z,12.30
2023-01-19T06:45:13.622Z,13.40
2023-01-19T06:47:41.515Z,12.60
2023-01-19T06:50:09.256Z,12.20
2023-01-19T06:52:42.524Z,11.10
2023-01-19T06:55:11.012Z,10.30
2023-01-19T06:57:39.084Z,8.80
2023-01-19T07:00:08.394Z,10.20
2023-01-19T07:02:36.502Z,7.10
2023-01-19T07:05:06.335Z,6.30
2023-01-19T07:07:39.765Z,8.10
2023-01-19T07:10:08.353Z,7.90
2023-01-19T07:12:36.195Z,7.30
2023-01-19T07:15:04.211Z,9.40
2023-01-19T07:17:31.975Z,8.10
2023-01-19T07:19:59.791Z,9.10
2023-01-19T07:22:28.217Z,9.20
2023-01-19T07:24:56.035Z,9.00
2023-01-19T07:27:23.819Z,8.60
2023-01-19T07:29:51.668Z,9.50
2023-01-19T07:32:19.460Z,9.40
2023-01-19T07:34:47.399Z,10.50
2023-01-19T07:37:15.464Z,15.60
2023-01-19T07:39:43.307Z,10.50
2023-01-19T07:42:11.171Z,10.80
2023-01-19T07:44:39.158Z,10.70
2023-01-19T07:47:09.145Z,10.10
2023-01-19T07:49:36.953Z,9.80
2023-01-19T07:52:04.795Z,14.90
2023-01-19T07:54:32.698Z,10.50
2023-01-19T07:57:03.483Z,8.00
2023-01-19T07:59:32.445Z,10.00
2023-01-19T08:02:00.528Z,12.30
2023-01-19T08:04:28.412Z,17.40
2023-01-19T08:06:56.500Z,13.40
2023-01-19T08:09:24.520Z,10.30
2023-01-19T08:11:52.288Z,12.50
2023-01-19T08:14:20.212Z,11.70
2023-01-19T08:16:48.887Z,14.10
2023-01-19T08:19:16.852Z,13.60
2023-01-19T08:21:46.344Z,16.20
2023-01-19T08:24:14.190Z,12.40
2023-01-19T08:26:41.979Z,11.10
2023-01-19T08:29:09.785Z,10.50
2023-01-19T08:31:38.173Z,10.30
2023-01-19T08:34:06.108Z,21.00
2023-01-19T08:36:34.035Z,15.50
2023-01-19T08:39:01.896Z,11.80
2023-01-19T08:41:29.708Z,9.60
2023-01-19T08:43:57.496Z,9.00
2023-01-19T08:46:25.464Z,7.10
2023-01-19T08:48:53.614Z,6.60
2023-01-19T08:51:21.428Z,7.50
2023-01-19T08:53:49.271Z,6.30
2023-01-19T08:56:20.357Z,6.00
2023-01-19T08:58:59.495Z,6.10
2023-01-19T09:01:37.397Z,4.80
2023-01-19T09:04:05.673Z,6.50
2023-01-19T09:06:33.409Z,6.50
2023-01-19T09:09:01.201Z,6.80
2023-01-19T09:11:29.215Z,9.30
2023-01-19T09:13:56.946Z,8.80
2023-01-19T09:16:27.370Z,9.70
2023-01-19T09:18:55.282Z,9.70
2023-01-19T09:21:23.066Z,10.30
2023-01-19T09:23:51.168Z,12.20
2023-01-19T09:26:19.247Z,14.30
2023-01-19T09:28:47.013Z,19.00
2023-01-19T09:31:15.328Z,19.10
2023-01-19T09:33:43.225Z,10.20
2023-01-19T09:36:11.148Z,12.70
2023-01-19T09:38:38.977Z,11.80
2023-01-19T09:41:07.365Z,12.00
2023-01-19T09:43:35.078Z,7.50
2023-01-19T09:46:02.824Z,8.60
2023-01-19T09:48:30.748Z,9.60
2023-01-19T09:50:58.514Z,9.90
2023-01-19T09:53:26.415Z,13.10
2023-01-19T09:55:54.614Z,13.00
2023-01-19T09:58:22.383Z,15.60
2023-01-19T10:00:50.268Z,11.80
2023-01-19T10:03:18.200Z,9.90
2023-01-19T10:05:46.002Z,10.30
2023-01-19T10:08:13.806Z,11.00
2023-01-19T10:10:42.499Z,10.90
2023-01-19T10:13:10.459Z,9.00
2023-01-19T10:15:38.222Z,10.00
2023-01-19T10:18:06.119Z,8.60
2023-01-19T10:20:33.910Z,10.90
2023-01-19T10:23:01.972Z,9.60
2023-01-19T10:25:30.368Z,11.80
2023-01-19T10:27:58.158Z,7.80
2023-01-19T10:30:25.912Z,25.40
2023-01-19T10:32:53.709Z,17.20
2023-01-19T10:35:25.299Z,6.60
2023-01-19T10:37:53.338Z,6.40
2023-01-19T10:40:21.256Z,5.90
2023-01-19T10:42:49.139Z,6.80
2023-01-19T10:45:16.930Z,5.50
2023-01-19T10:47:44.738Z,5.00
2023-01-19T10:50:12.483Z,5.10
2023-01-19T10:52:41.315Z,5.00
2023-01-19T10:55:09.106Z,6.30
2023-01-19T10:57:38.445Z,7.40
2023-01-19T11:00:06.217Z,8.50
2023-01-19T11:02:34.345Z,16.90
2023-01-19T11:05:02.405Z,11.00
2023-01-19T11:07:30.545Z,10.40
2023-01-19T11:09:58.332Z,10.10
2023-01-19T11:12:26.049Z,6.70
2023-01-19T11:14:54.325Z,6.20
2023-01-19T11:17:22.193Z,6.50
2023-01-19T11:19:49.929Z,8.20
2023-01-19T11:22:21.962Z,8.00
2023-01-19T11:24:49.791Z,6.90
2023-01-19T11:27:17.555Z,8.40
2023-01-19T11:29:45.337Z,7.30
2023-01-19T11:32:13.117Z,7.60
2023-01-19T11:34:40.992Z,7.80
2023-01-19T11:37:08.800Z,8.00
2023-01-19T11:39:36.898Z,9.30
2023-01-19T11:42:04.964Z,10.10
2023-01-19T11:44:32.758Z,8.20
2023-01-19T11:47:01.003Z,6.30
2023-01-19T11:49:28.773Z,5.30
2023-01-19T11:51:56.508Z,6.60
2023-01-19T11:54:24.513Z,9.80
2023-01-19T11:56:52.377Z,10.90
2023-01-19T11:59:20.126Z,11.80
2023-01-19T12:01:48.081Z,12.00
2023-01-19T12:04:15.858Z,9.10
2023-01-19T12:06:44.880Z,9.20
2023-01-19T12:09:12.660Z,7.60
2023-01-19T12:11:40.565Z,6.50
2023-01-19T12:14:08.328Z,6.00
2023-01-19T12:16:36.169Z,7.40
2023-01-19T12:19:03.947Z,9.10
2023-01-19T12:21:31.799Z,9.00
2023-01-19T12:23:59.913Z,11.40
2023-01-19T12:26:28.034Z,15.40
2023-01-19T12:28:57.501Z,14.90
2023-01-19T12:31:25.389Z,10.20
2023-01-19T12:33:53.242Z,8.50
2023-01-19T12:36:21.811Z,6.60
2023-01-19T12:38:49.631Z,7.20
2023-01-19T12:41:17.602Z,5.70
2023-01-19T12:43:45.338Z,7.10
2023-01-19T12:46:13.343Z,11.10
2023-01-19T12:48:41.181Z,8.40
2023-01-19T12:51:08.978Z,8.80
2023-01-19T12:53:36.947Z,19.30
2023-01-19T12:56:06.162Z,9.60
2023-01-19T12:58:36.816Z,8.20
2023-01-19T13:01:04.700Z,8.90
2023-01-19T13:03:32.587Z,11.00
2023-01-19T13:06:00.444Z,12.00
2023-01-19T13:08:30.002Z,9.50
2023-01-19T13:10:57.929Z,10.00
2023-01-19T13:13:25.700Z,12.10
2023-01-19T13:15:55.684Z,11.80
2023-01-19T13:18:23.730Z,12.20
2023-01-19T13:20:51.510Z,11.60
2023-01-19T13:23:21.470Z,10.70
2023-01-19T13:25:49.238Z,12.10
2023-01-19T13:28:16.995Z,11.50
2023-01-19T13:30:45.125Z,9.80
2023-01-19T13:33:12.957Z,7.60
2023-01-19T13:35:40.846Z,6.50
2023-01-19T13:38:08.676Z,7.30
2023-01-19T13:40:37.006Z,7.10
2023-01-19T13:43:04.952Z,7.40
2023-01-19T13:45:37.148Z,7.90
2023-01-19T13:48:04.958Z,6.30
2023-01-19T13:50:32.743Z,5.60
2023-01-19T13:53:01.527Z,4.40
2023-01-19T13:55:29.490Z,5.30
2023-01-19T13:57:57.265Z,7.70
2023-01-19T14:00:25.218Z,12.80
2023-01-19T14:02:53.586Z,20.80
2023-01-19T14:05:21.652Z,16.50
2023-01-19T14:07:49.492Z,13.90
2023-01-19T14:10:17.443Z,12.20
2023-01-19T14:12:58.544Z,13.30
2023-01-19T14:15:27.023Z,13.40
2023-01-19T14:17:54.760Z,7.90
2023-01-19T14:20:22.491Z,12.00
2023-01-19T14:22:51.176Z,8.80
2023-01-19T14:25:18.961Z,9.50
2023-01-19T14:27:46.759Z,7.40
2023-01-19T14:30:14.629Z,10.00
2023-01-19T14:32:42.618Z,10.70
2023-01-19T14:35:10.724Z,11.10
2023-01-19T14:37:38.901Z,10.90
2023-01-19T14:40:08.191Z,15.40
2023-01-19T14:42:35.974Z,15.10
2023-01-19T14:45:04.141Z,11.60
2023-01-19T14:47:32.007Z,11.40
2023-01-19T14:50:00.624Z,14.80
2023-01-19T14:52:28.429Z,14.00
2023-01-19T14:54:56.562Z,12.10
2023-01-19T14:57:24.275Z,11.40
2023-01-19T14:59:52.941Z,10.60
2023-01-19T15:02:20.817Z,7.90
2023-01-19T15:04:49.111Z,9.20
2023-01-19T15:07:16.937Z,17.60
2023-01-19T15:09:44.677Z,16.60
2023-01-19T15:12:12.402Z,12.50
2023-01-19T15:14:40.165Z,11.20
2023-01-19T15:17:07.897Z,11.10
2023-01-19T15:19:35.758Z,7.80
2023-01-19T15:22:03.772Z,5.00
2023-01-19T15:24:31.662Z,4.20
2023-01-19T15:27:02.003Z,3.30
2023-01-19T15:29:32.148Z,2.60
2023-01-19T15:32:00.150Z,2.70
2023-01-19T15:34:27.927Z,3.80
2023-01-19T15:36:55.864Z,4.40
2023-01-19T15:39:23.976Z,4.40
2023-01-19T15:41:51.688Z,3.20
2023-01-19T15:44:19.502Z,4.00
2023-01-19T15:46:47.449Z,3.70
2023-01-19T15:49:15.241Z,3.70
2023-01-19T15:51:43.032Z,3.10
2023-01-19T15:54:10.862Z,2.70
2023-01-19T15:56:38.630Z,3.90
2023-01-19T15:59:06.468Z,4.30
2023-01-19T16:01:35.302Z,5.00
2023-01-19T16:04:03.107Z,5.00
2023-01-19T16:06:30.879Z,6.80
2023-01-19T16:09:01.956Z,12.40
2023-01-19T16:11:30.031Z,32.00
2023-01-19T16:13:57.986Z,36.90
2023-01-19T16:16:25.882Z,24.60
2023-01-19T16:18:53.794Z,23.50
2023-01-19T16:21:21.629Z,19.50
2023-01-19T16:23:49.374Z,17.20
2023-01-19T16:26:17.659Z,18.50
2023-01-19T16:28:45.678Z,16.70
2023-01-19T16:31:15.076Z,9.40
2023-01-19T16:33:42.935Z,24.00
2023-01-19T16:36:10.738Z,9.10
2023-01-19T16:38:38.538Z,9.20
2023-01-19T16:41:06.363Z,8.00
2023-01-19T16:43:34.212Z,6.20
2023-01-19T16:46:02.577Z,31.90
2023-01-19T16:48:32.357Z,51.40
2023-01-19T16:51:00.555Z,51.70
2023-01-19T16:53:28.276Z,43.20
2023-01-19T16:55:55.984Z,29.00
2023-01-19T16:58:23.744Z,27.10
2023-01-19T17:00:51.578Z,19.20
2023-01-19T17:03:19.599Z,18.30
2023-01-19T17:05:47.356Z,17.40
2023-01-19T17:08:15.073Z,17.90
2023-01-19T17:10:43.869Z,14.30
2023-01-19T17:13:12.444Z,11.90
2023-01-19T17:15:40.519Z,14.20
2023-01-19T17:18:10.218Z,15.80
2023-01-19T17:20:38.234Z,24.80
2023-01-19T17:23:06.181Z,17.90
2023-01-19T17:25:34.072Z,24.00
2023-01-19T17:28:01.941Z,19.00
2023-01-19T17:30:29.895Z,16.50
2023-01-19T17:32:57.678Z,14.90
2023-01-19T17:35:25.541Z,14.60
2023-01-19T17:37:53.756Z,9.60
2023-01-19T17:40:21.774Z,9.20
2023-01-19T17:42:49.738Z,11.40
2023-01-19T17:45:17.478Z,10.40
2023-01-19T17:47:45.325Z,10.10
2023-01-19T17:50:13.542Z,9.90
2023-01-19T17:52:41.560Z,7.70
2023-01-19T17:55:09.695Z,8.00
2023-01-19T17:57:37.614Z,10.40
2023-01-19T18:00:05.497Z,7.90
2023-01-19T18:02:34.766Z,7.30
2023-01-19T18:05:03.391Z,7.70
2023-01-19T18:07:31.321Z,16.10
2023-01-19T18:10:01.049Z,11.40
2023-01-19T18:12:29.257Z,11.20
2023-01-19T18:14:57.135Z,14.30
2023-01-19T18:17:24.867Z,12.60
2023-01-19T18:19:52.887Z,20.80
2023-01-19T18:22:20.830Z,22.50
2023-01-19T18:24:49.213Z,27.00
2023-01-19T18:27:17.009Z,30.80
2023-01-19T18:29:44.755Z,23.10
2023-01-19T18:32:12.475Z,29.30
2023-01-19T18:34:40.575Z,24.80
2023-01-19T18:37:08.696Z,28.40
2023-01-19T18:39:36.952Z,31.60
2023-01-19T18:42:04.797Z,28.30
2023-01-19T18:44:32.560Z,17.80
2023-01-19T18:47:03.313Z,17.10
2023-01-19T18:49:31.288Z,11.00
2023-01-19T18:52:00.520Z,10.30
2023-01-19T18:54:28.334Z,7.50
2023-01-19T18:56:56.084Z,9.00
2023-01-19T18:59:24.034Z,8.70
2023-01-19T19:01:52.045Z,10.70
2023-01-19T19:04:20.350Z,8.50
2023-01-19T19:06:48.278Z,7.60
2023-01-19T19:09:16.090Z,77.40
2023-01-19T19:11:44.004Z,15.10
2023-01-19T19:14:11.978Z,11.30
2023-01-19T19:16:39.863Z,8.90
2023-01-19T19:19:08.839Z,6.90
2023-01-19T19:21:36.595Z,6.90
2023-01-19T19:24:04.445Z,7.20
2023-01-19T19:26:33.059Z,8.20
2023-01-19T19:29:01.003Z,8.70
2023-01-19T19:31:30.330Z,7.00
2023-01-19T19:33:58.371Z,9.30
2023-01-19T19:36:26.222Z,9.80
2023-01-19T19:38:54.746Z,14.00
2023-01-19T19:41:22.980Z,17.60
2023-01-19T19:43:50.876Z,14.10
2023-01-19T19:46:20.308Z,12.70
2023-01-19T19:48:48.313Z,11.40
2023-01-19T19:51:18.812Z,13.10
2023-01-19T19:53:50.950Z,8.40
2023-01-19T19:56:21.572Z,7.50
2023-01-19T19:58:49.853Z,8.30
2023-01-19T20:01:17.764Z,6.90
2023-01-19T20:03:46.062Z,9.20
2023-01-19T20:06:14.237Z,9.50
2023-01-19T20:08:42.020Z,11.60
2023-01-19T20:11:10.105Z,9.50
2023-01-19T20:13:38.576Z,14.60
2023-01-19T20:16:06.391Z,11.70
2023-01-19T20:18:34.424Z,13.80
2023-01-19T20:21:02.254Z,12.90
2023-01-19T20:23:30.427Z,17.40
2023-01-19T20:25:58.237Z,14.10
2023-01-19T20:28:26.169Z,14.70
2023-01-19T20:30:55.090Z,18.90
2023-01-19T20:33:23.008Z,15.00
2023-01-19T20:35:52.339Z,20.10
2023-01-19T20:38:20.137Z,12.70
2023-01-19T20:40:47.949Z,15.30
2023-01-19T20:43:16.207Z,23.70
2023-01-19T20:45:45.417Z,16.60
2023-01-19T20:48:13.273Z,11.70
2023-01-19T20:50:41.055Z,15.00
2023-01-19T20:53:09.040Z,11.70
2023-01-19T20:55:37.028Z,13.30
2023-01-19T20:58:04.746Z,11.90
2023-01-19T21:00:32.548Z,15.30
2023-01-19T21:03:03.379Z,15.10
2023-01-19T21:05:31.157Z,13.50
2023-01-19T21:07:58.882Z,12.10
2023-01-19T21:10:26.749Z,9.60
2023-01-19T21:12:54.901Z,9.60
2023-01-19T21:15:22.642Z,8.40
2023-01-19T21:17:50.479Z,8.60
2023-01-19T21:20:18.296Z,7.20
2023-01-19T21:22:46.670Z,6.50
2023-01-19T21:25:14.865Z,5.60
2023-01-19T21:27:43.429Z,8.10
2023-01-19T21:30:11.585Z,7.40
2023-01-19T21:32:39.495Z,10.90
2023-01-19T21:35:07.390Z,10.40
2023-01-19T21:37:35.248Z,8.50
2023-01-19T21:40:03.056Z,9.30
2023-01-19T21:42:31.042Z,8.50
2023-01-19T21:44:58.906Z,7.00
2023-01-19T21:47:26.985Z,9.20
2023-01-19T21:49:54.960Z,11.10
2023-01-19T21:52:22.804Z,17.40
2023-01-19T21:54:50.916Z,15.70
2023-01-19T21:57:19.861Z,16.90
2023-01-19T21:59:47.907Z,13.40
2023-01-19T22:02:21.588Z,9.70
2023-01-19T22:04:54.669Z,9.30
2023-01-19T22:07:22.564Z,7.40
2023-01-19T22:09:50.276Z,7.40
2023-01-19T22:12:18.012Z,10.90
2023-01-19T22:14:45.790Z,9.00
2023-01-19T22:17:13.638Z,6.40
2023-01-19T22:19:41.421Z,8.70
2023-01-19T22:22:09.340Z,12.30
2023-01-19T22:24:37.148Z,10.90
2023-01-19T22:27:05.047Z,9.50
2023-01-19T22:29:32.939Z,12.90
2023-01-19T22:32:00.751Z,10.50
2023-01-19T22:34:28.551Z,9.30
2023-01-19T22:36:56.458Z,10.30
2023-01-19T22:39:24.265Z,10.40
2023-01-19T22:41:51.990Z,9.70
2023-01-19T22:44:22.719Z,8.50
2023-01-19T22:46:50.752Z,6.90
2023-01-19T22:49:18.581Z,7.10
2023-01-19T22:51:46.448Z,9.30
2023-01-19T22:54:14.284Z,10.50
2023-01-19T22:56:42.264Z,9.30
2023-01-19T22:59:10.464Z,10.30
2023-01-19T23:01:38.532Z,9.10
2023-01-19T23:04:06.483Z,11.90
2023-01-19T23:06:34.326Z,7.60
2023-01-19T23:09:02.178Z,10.00
2023-01-19T23:11:30.030Z,8.00
2023-01-19T23:13:57.896Z,9.60
2023-01-19T23:16:25.789Z,9.60
2023-01-19T23:18:53.641Z,8.40
2023-01-19T23:21:21.600Z,10.20
2023-01-19T23:23:49.377Z,7.60
2023-01-19T23:26:17.167Z,7.30
2023-01-19T23:28:45.127Z,6.40
2023-01-19T23:31:13.292Z,9.70
2023-01-19T23:33:44.422Z,9.40
2023-01-19T23:36:12.683Z,8.80
2023-01-19T23:38:40.579Z,10.00
2023-01-19T23:41:08.431Z,8.30
2023-01-19T23:43:36.229Z,7.40
2023-01-19T23:46:04.093Z,8.20
2023-01-19T23:48:31.858Z,9.70
2023-01-19T23:50:59.665Z,8.50
2023-01-19T23:53:27.444Z,6.80
2023-01-19T23:55:55.227Z,8.30
2023-01-19T23:58:23.234Z,7.60
